Dades meteomassalio
Diari Summary for Marc 20, 2017 Units:  English    Metric   Both
« Previous Day
Next Day »
Diari Semanal Mensual Anual Personalitzat
  Maxima: Minima: Mijana:
Temperatura: TemperatureC °F 4.7 °F 13.2 °F
Rosada: DewpointC °F 3.3 °F 7 °F
Humitat: Humidity % 41 % 69 %
Velocitat del vent: WindSpeedKMH mph 0.0 mph 1.4 mph
Racha vent: WindSpeedGustKMH mph - -
Vent:- - SSW
Pressio: PressurehPa in 1012.1 in -
Pluja: 0.0 in    
Historical Graphs
 
 
Tabular Data for Marc 20, 2017
Time Temperature Dew Point Pressure Wind Wind Speed Wind Gust Humidity Rainfall Rate (Hourly) solar Conditions
TemperatureC °F DewpointC °F PressurehPa in Calm     Humidity % HourlyPrecipMM in SolarRadiationWatts/m^2 W/m2 Conditions
00:00 8.9 °F 5.8 °F 1016.1 in Calm     81 % 0.0 in 0.0 W/m2 CLR
00:05 8.8 °F 5.7 °F 1016.1 in Calm     81 % 0.0 in 0.0 W/m2 CLR
00:10 8.6 °F 5.6 °F 1016.1 in Calm     81 % 0.0 in 0.0 W/m2 CLR
00:15 8.3 °F 5.3 °F 1016.1 in Calm     81 % 0.0 in 0.0 W/m2 CLR
00:20 8.2 °F 5.3 °F 1016.1 in Calm     82 % 0.0 in 0.0 W/m2 CLR
00:25 8.1 °F 5.3 °F 1016.1 in Calm     83 % 0.0 in 0.0 W/m2 CLR
00:30 7.9 °F 5.2 °F 1016.1 in Calm     83 % 0.0 in 0.0 W/m2 CLR
00:35 7.8 °F 5.3 °F 1015.8 in Calm     84 % 0.0 in 0.0 W/m2 CLR
00:40 7.8 °F 5.3 °F 1015.8 in Calm     84 % 0.0 in 0.0 W/m2 CLR
00:45 7.8 °F 5.2 °F 1016.1 in Calm     84 % 0.0 in 0.0 W/m2 CLR
00:50 7.7 °F 5.2 °F 1016.1 in Calm     84 % 0.0 in 0.0 W/m2 CLR
00:55 7.6 °F 5.1 °F 1016.1 in Calm     84 % 0.0 in 0.0 W/m2 CLR
01:00 7.4 °F 5.1 °F 1016.1 in Calm     85 % 0.0 in 0.0 W/m2 CLR
01:05 7.3 °F 5.0 °F 1016.1 in Calm     85 % 0.0 in 0.0 W/m2 CLR
01:10 7.3 °F 5.0 °F 1015.8 in Calm     85 % 0.0 in 0.0 W/m2 CLR
01:15 7.3 °F 5.1 °F 1015.8 in Calm     86 % 0.0 in 0.0 W/m2 CLR
01:20 7.5 °F 5.3 °F 1016.1 in Calm     86 % 0.0 in 0.0 W/m2 CLR
01:25 7.6 °F 5.1 °F 1016.1 in Calm     84 % 0.0 in 0.0 W/m2 CLR
01:30 7.6 °F 5.2 °F 1016.1 in Calm     85 % 0.0 in 0.0 W/m2 CLR
01:35 7.5 °F 5.2 °F 1016.1 in Calm     85 % 0.0 in 0.0 W/m2 CLR
01:40 7.4 °F 5.1 °F 1016.1 in Calm     85 % 0.0 in 0.0 W/m2 CLR
01:45 7.3 °F 4.9 °F 1016.1 in Calm     85 % 0.0 in 0.0 W/m2 CLR
01:50 7.2 °F 4.8 °F 1016.1 in Calm     85 % 0.0 in 0.0 W/m2 CLR
01:55 7.1 °F 4.9 °F 1015.8 in Calm     86 % 0.0 in 0.0 W/m2 CLR
02:00 7.1 °F 4.9 °F 1015.8 in Calm     86 % 0.0 in 0.0 W/m2 CLR
02:05 7.2 °F 5.1 °F 1015.8 in Calm     86 % 0.0 in 0.0 W/m2 CLR
02:10 7.3 °F 5.1 °F 1015.8 in Calm     86 % 0.0 in 0.0 W/m2 CLR
02:15 7.3 °F 5.2 °F 1015.8 in Calm     86 % 0.0 in 0.0 W/m2 CLR
02:20 7.3 °F 5.0 °F 1015.8 in Calm     85 % 0.0 in 0.0 W/m2 CLR
02:25 7.3 °F 5.0 °F 1015.8 in Calm     85 % 0.0 in 0.0 W/m2 CLR
02:30 7.3 °F 4.9 °F 1015.8 in Calm     85 % 0.0 in 0.0 W/m2 CLR
02:35 7.3 °F 4.9 °F 1015.8 in Calm     85 % 0.0 in 0.0 W/m2 CLR
02:40 7.2 °F 4.8 °F 1015.8 in Calm     85 % 0.0 in 0.0 W/m2 CLR
02:45 7.3 °F 5.1 °F 1015.8 in Calm     86 % 0.0 in 0.0 W/m2 CLR
02:50 7.3 °F 5.2 °F 1015.8 in Calm     86 % 0.0 in 0.0 W/m2 CLR
02:55 7.3 °F 5.2 °F 1015.8 in Calm     86 % 0.0 in 0.0 W/m2 CLR
03:00 7.3 °F 5.0 °F 1015.8 in Calm     85 % 0.0 in 0.0 W/m2 CLR
03:06 7.3 °F 4.9 °F 1015.8 in Calm     85 % 0.0 in 0.0 W/m2 CLR
03:11 7.2 °F 4.9 °F 1015.8 in Calm     85 % 0.0 in 0.0 W/m2 CLR
03:16 7.1 °F 4.7 °F 1015.8 in Calm     85 % 0.0 in 0.0 W/m2 CLR
03:21 7.0 °F 4.8 °F 1015.5 in Calm     86 % 0.0 in 0.0 W/m2 CLR
03:26 7.0 °F 4.8 °F 1015.8 in Calm     86 % 0.0 in 0.0 W/m2 CLR
03:31 6.9 °F 4.8 °F 1015.8 in Calm     86 % 0.0 in 0.0 W/m2 CLR
03:36 6.8 °F 4.7 °F 1015.5 in Calm     86 % 0.0 in 0.0 W/m2 CLR
03:41 6.7 °F 4.6 °F 1015.5 in Calm     86 % 0.0 in 0.0 W/m2 CLR
03:46 6.6 °F 4.6 °F 1015.5 in Calm     87 % 0.0 in 0.0 W/m2 CLR
03:51 6.6 °F 4.6 °F 1015.5 in Calm     87 % 0.0 in 0.0 W/m2 CLR
03:56 6.4 °F 4.4 °F 1015.5 in Calm     87 % 0.0 in 0.0 W/m2 CLR
04:01 6.4 °F 4.6 °F 1015.5 in Calm     88 % 0.0 in 0.0 W/m2 CLR
04:06 6.4 °F 4.6 °F 1015.5 in Calm     88 % 0.0 in 0.0 W/m2 CLR
04:11 6.3 °F 4.5 °F 1015.8 in Calm     88 % 0.0 in 0.0 W/m2 CLR
04:16 6.2 °F 4.4 °F 1015.5 in Calm     88 % 0.0 in 0.0 W/m2 CLR
04:21 6.2 °F 4.3 °F 1015.5 in Calm     88 % 0.0 in 0.0 W/m2 CLR
04:26 6.2 °F 4.3 °F 1015.5 in Calm     88 % 0.0 in 0.0 W/m2 CLR
04:31 6.1 °F 4.2 °F 1015.5 in Calm     88 % 0.0 in 0.0 W/m2 CLR
04:36 6.0 °F 4.2 °F 1015.5 in Calm     88 % 0.0 in 0.0 W/m2 CLR
04:41 5.9 °F 4.1 °F 1015.5 in Calm     88 % 0.0 in 0.0 W/m2 CLR
04:46 5.9 °F 4.2 °F 1015.5 in Calm     89 % 0.0 in 0.0 W/m2 CLR
04:51 5.9 °F 4.2 °F 1015.5 in Calm     89 % 0.0 in 0.0 W/m2 CLR
04:56 5.8 °F 4.2 °F 1015.5 in Calm     89 % 0.0 in 0.0 W/m2 CLR
05:01 5.9 °F 4.2 °F 1015.5 in Calm     89 % 0.0 in 0.0 W/m2 CLR
05:06 5.8 °F 4.1 °F 1015.8 in Calm     89 % 0.0 in 0.0 W/m2 CLR
05:11 5.7 °F 4.0 °F 1015.8 in Calm     89 % 0.0 in 0.0 W/m2 CLR
05:16 5.6 °F 3.9 °F 1015.8 in Calm     89 % 0.0 in 0.0 W/m2 CLR
05:21 5.4 °F 3.8 °F 1015.8 in Calm     89 % 0.0 in 0.0 W/m2 CLR
05:26 5.4 °F 3.9 °F 1015.8 in Calm     90 % 0.0 in 0.0 W/m2 CLR
05:31 5.3 °F 3.8 °F 1015.8 in Calm     90 % 0.0 in 0.0 W/m2 CLR
05:36 5.3 °F 3.8 °F 1015.8 in Calm     90 % 0.0 in 0.0 W/m2 CLR
05:41 5.4 °F 3.9 °F 1015.8 in Calm     90 % 0.0 in 0.0 W/m2 CLR
05:46 5.3 °F 3.8 °F 1015.8 in Calm     90 % 0.0 in 0.0 W/m2 CLR
05:51 5.3 °F 3.8 °F 1015.8 in Calm     90 % 0.0 in 0.0 W/m2 CLR
05:56 5.2 °F 3.7 °F 1015.8 in Calm     90 % 0.0 in 0.0 W/m2 CLR
06:01 5.1 °F 3.6 °F 1016.1 in Calm     90 % 0.0 in 0.0 W/m2 CLR
06:06 5.1 °F 3.6 °F 1015.8 in Calm     90 % 0.0 in 0.0 W/m2 CLR
06:11 5.0 °F 3.5 °F 1016.1 in Calm     90 % 0.0 in 0.0 W/m2 CLR
06:16 5.1 °F 3.7 °F 1015.8 in Calm     91 % 0.0 in 0.0 W/m2 CLR
06:21 5.1 °F 3.7 °F 1015.8 in Calm     91 % 0.0 in 0.0 W/m2 CLR
06:26 5.1 °F 3.7 °F 1015.8 in Calm     91 % 0.0 in 0.0 W/m2 CLR
06:31 5.1 °F 3.7 °F 1015.8 in Calm     91 % 0.0 in 0.0 W/m2 CLR
06:36 5.1 °F 3.7 °F 1015.8 in Calm     91 % 0.0 in 0.0 W/m2 CLR
06:41 5.1 °F 3.7 °F 1016.1 in Calm     91 % 0.0 in 0.0 W/m2 CLR
06:46 4.9 °F 3.6 °F 1015.8 in Calm     91 % 0.0 in 0.0 W/m2 CLR
06:51 4.8 °F 3.3 °F 1015.8 in Calm     90 % 0.0 in 0.0 W/m2 CLR
06:56 4.8 °F 3.4 °F 1016.1 in Calm     91 % 0.0 in 0.0 W/m2 CLR
07:01 4.8 °F 3.4 °F 1016.1 in Calm     91 % 0.0 in 0.0 W/m2 OVC
07:06 4.8 °F 3.4 °F 1016.1 in Calm     91 % 0.0 in 5.0 W/m2 OVC
07:11 4.7 °F 3.4 °F 1016.1 in Calm     91 % 0.0 in 9.0 W/m2 BKN
07:16 4.7 °F 3.3 °F 1016.1 in Calm     91 % 0.0 in 12.0 W/m2 BKN
07:21 4.7 °F 3.4 °F 1016.1 in Calm     91 % 0.0 in 14.0 W/m2 BKN
07:26 4.8 °F 3.5 °F 1016.1 in Calm     91 % 0.0 in 18.0 W/m2 BKN
07:31 4.9 °F 3.6 °F 1016.5 in Calm     91 % 0.0 in 19.0 W/m2 BKN
07:36 5.1 °F 3.7 °F 1016.5 in Calm     91 % 0.0 in 23.0 W/m2 BKN
07:41 5.1 °F 3.8 °F 1016.5 in Calm     91 % 0.0 in 47.0 W/m2 BKN
07:46 5.3 °F 3.9 °F 1016.5 in Calm     91 % 0.0 in 54.0 W/m2 SCT
07:51 5.3 °F 3.9 °F 1016.5 in Calm     91 % 0.0 in 72.0 W/m2 FEW
07:56 5.4 °F 4.1 °F 1016.5 in Calm     91 % 0.0 in 74.0 W/m2 FEW
08:01 5.7 °F 4.3 °F 1016.5 in Calm     91 % 0.0 in 88.0 W/m2 FEW
08:06 6.1 °F 4.7 °F 1016.5 in Calm     91 % 0.0 in 100.0 W/m2 FEW
08:11 6.6 °F 5.2 °F 1016.5 in Calm     91 % 0.0 in 84.0 W/m2 CLR
08:16 6.9 °F 5.4 °F 1016.5 in Calm     90 % 0.0 in 123.0 W/m2 CLR
08:21 7.1 °F 5.4 °F 1016.5 in Calm     89 % 0.0 in 169.0 W/m2 CLR
08:26 7.3 °F 5.4 °F 1016.5 in Calm     88 % 0.0 in 185.0 W/m2 CLR
08:31 7.6 °F 5.7 °F 1016.5 in Calm     88 % 0.0 in 202.0 W/m2 CLR
08:36 8.1 °F 6.1 °F 1016.5 in Calm     87 % 0.0 in 218.0 W/m2 CLR
08:41 8.6 °F 6.4 °F 1016.5 in Calm     86 % 0.0 in 234.0 W/m2 CLR
08:46 9.1 °F 6.7 °F 1016.5 in Calm     85 % 0.0 in 251.0 W/m2 CLR
08:51 9.5 °F 6.9 °F 1016.5 in Calm     84 % 0.0 in 265.0 W/m2 CLR
08:56 10.0 °F 7.1 °F 1016.5 in Calm     82 % 0.0 in 281.0 W/m2 CLR
09:01 10.4 °F 7.3 °F 1016.5 in Calm     81 % 0.0 in 299.0 W/m2 CLR
09:07 11.1 °F 7.6 °F 1016.5 in Calm     79 % 0.0 in 322.0 W/m2 CLR
09:12 11.6 °F 7.7 °F 1016.5 in Calm     77 % 0.0 in 336.0 W/m2 CLR
09:17 11.9 °F 7.6 °F 1016.1 in Calm     75 % 0.0 in 355.0 W/m2 CLR
09:27 12.2 °F 7.7 °F 1016.1 in Calm     74 % 0.0 in 380.0 W/m2 CLR
09:32 12.3 °F 7.6 °F 1016.1 in Calm     73 % 0.0 in 408.0 W/m2 CLR
09:37 12.6 °F 7.9 °F 1016.1 in Calm     73 % 0.0 in 369.0 W/m2 CLR
09:42 12.8 °F 7.8 °F 1016.1 in Calm     72 % 0.0 in 427.0 W/m2 CLR
09:47 13.1 °F 8.2 °F 1016.1 in Calm     72 % 0.0 in 441.0 W/m2 CLR
09:52 13.5 °F 8.3 °F 1015.8 in Calm     71 % 0.0 in 452.0 W/m2 CLR
09:57 13.8 °F 8.2 °F 1016.1 in Calm     69 % 0.0 in 464.0 W/m2 CLR
10:02 14.1 °F 8.3 °F 1016.1 in Calm     68 % 0.0 in 478.0 W/m2 CLR
10:07 14.3 °F 8.3 °F 1015.8 in Calm     67 % 0.0 in 492.0 W/m2 CLR
10:12 14.8 °F 9.0 °F 1015.8 in Calm     68 % 0.0 in 506.0 W/m2 CLR
10:17 15.5 °F 8.7 °F 1015.8 in Calm     64 % 0.0 in 520.0 W/m2 CLR
10:22 15.8 °F 8.6 °F 1015.8 in Calm     62 % 0.0 in 533.0 W/m2 CLR
10:27 16.1 °F 9.0 °F 1015.8 in Calm     63 % 0.0 in 545.0 W/m2 CLR
10:32 16.4 °F 8.8 °F 1015.8 in Calm     61 % 0.0 in 555.0 W/m2 CLR
10:37 16.6 °F 8.6 °F 1015.8 in Calm     59 % 0.0 in 568.0 W/m2 CLR
10:42 16.7 °F 8.9 °F 1015.5 in Calm     60 % 0.0 in 580.0 W/m2 CLR
10:47 16.9 °F 8.9 °F 1015.5 in NNW 1.9 mph   59 % 0.0 in 592.0 W/m2 CLR
10:52 17.1 °F 8.7 °F 1015.5 in NNW 7.4 mph 7.4 mph 58 % 0.0 in 601.0 W/m2 CLR
10:57 17.0 °F 8.7 °F 1015.5 in WNW 5.6 mph 5.6 mph 58 % 0.0 in 612.0 W/m2 CLR
11:02 16.9 °F 8.6 °F 1015.5 in NNW 7.4 mph 7.4 mph 58 % 0.0 in 624.0 W/m2 CLR
11:07 17.0 °F 8.4 °F 1015.5 in Calm     57 % 0.0 in 631.0 W/m2 CLR
11:12 17.2 °F 8.6 °F 1015.5 in NNE 5.6 mph 5.6 mph 57 % 0.0 in 635.0 W/m2 CLR
11:17 17.5 °F 8.6 °F 1015.1 in West 5.6 mph 5.6 mph 56 % 0.0 in 652.0 W/m2 CLR
11:22 17.4 °F 8.6 °F 1015.1 in NNE 5.6 mph 5.6 mph 56 % 0.0 in 652.0 W/m2 CLR
11:27 17.6 °F 9.2 °F 1015.1 in NNW 7.4 mph 7.4 mph 58 % 0.0 in 671.0 W/m2 CLR
11:32 17.7 °F 8.6 °F 1015.1 in North 11.3 mph 11.3 mph 55 % 0.0 in 684.0 W/m2 CLR
11:37 17.8 °F 8.6 °F 1015.1 in WNW 7.4 mph 7.4 mph 55 % 0.0 in 694.0 W/m2 CLR
11:42 17.8 °F 8.4 °F 1015.1 in North 5.6 mph 5.6 mph 54 % 0.0 in 701.0 W/m2 CLR
11:47 18.1 °F 8.6 °F 1015.1 in NW 11.3 mph 11.3 mph 54 % 0.0 in 717.0 W/m2 CLR
11:52 18.0 °F 8.6 °F 1015.1 in Calm     54 % 0.0 in 724.0 W/m2 CLR
11:57 18.3 °F 9.4 °F 1015.1 in North 5.6 mph 5.6 mph 56 % 0.0 in 712.0 W/m2 CLR
12:02 18.4 °F 9.2 °F 1015.1 in WNW 11.1 mph 11.1 mph 55 % 0.0 in 737.0 W/m2 CLR
12:07 18.6 °F 9.1 °F 1015.1 in NE 5.6 mph 5.6 mph 54 % 0.0 in 737.0 W/m2 CLR
12:12 18.7 °F 9.2 °F 1014.8 in WNW 9.3 mph   54 % 0.0 in 740.0 W/m2 CLR
12:17 18.8 °F 9.0 °F 1014.8 in North 1.9 mph   53 % 0.0 in 733.0 W/m2 CLR
12:22 18.9 °F 9.1 °F 1014.8 in North 9.7 mph 9.7 mph 53 % 0.0 in 737.0 W/m2 CLR
12:27 18.8 °F 9.3 °F 1014.8 in North 11.1 mph 11.1 mph 54 % 0.0 in 742.0 W/m2 CLR
12:32 18.7 °F 8.7 °F 1014.8 in West 1.9 mph   52 % 0.0 in 744.0 W/m2 CLR
12:37 18.8 °F 9.3 °F 1014.4 in North 9.3 mph 9.3 mph 54 % 0.0 in 745.0 W/m2 CLR
12:42 18.9 °F 9.7 °F 1014.4 in NW 5.6 mph   55 % 0.0 in 749.0 W/m2 CLR
12:47 18.9 °F 8.5 °F 1014.4 in Calm     51 % 0.0 in 749.0 W/m2 CLR
12:52 19.0 °F 8.9 °F 1014.4 in NNE 5.6 mph 5.6 mph 52 % 0.0 in 751.0 W/m2 CLR
12:57 19.3 °F 8.9 °F 1014.4 in Calm     51 % 0.0 in 752.0 W/m2 CLR
13:02 19.5 °F 9.7 °F 1014.4 in NE 7.4 mph 7.4 mph 53 % 0.0 in 754.0 W/m2 CLR
13:07 19.7 °F 9.3 °F 1014.4 in NE 11.1 mph 11.1 mph 51 % 0.0 in 756.0 W/m2 CLR
13:12 19.8 °F 10.3 °F 1014.1 in NW 4.8 mph 4.8 mph 54 % 0.0 in 754.0 W/m2 CLR
13:17 19.9 °F 9.4 °F 1014.1 in Calm     51 % 0.0 in 756.0 W/m2 CLR
13:22 20.2 °F 10.1 °F 1014.1 in Calm     52 % 0.0 in 754.0 W/m2 CLR
13:27 20.6 °F 10.1 °F 1014.1 in NNW 5.6 mph   51 % 0.0 in 751.0 W/m2 CLR
13:32 20.7 °F 9.9 °F 1014.1 in NE 3.7 mph 3.7 mph 50 % 0.0 in 752.0 W/m2 CLR
13:37 20.8 °F 10.0 °F 1013.8 in NNW 6.4 mph 6.4 mph 50 % 0.0 in 751.0 W/m2 CLR
13:43 20.6 °F 9.2 °F 1013.8 in NNW 13.0 mph 13.0 mph 48 % 0.0 in 745.0 W/m2 CLR
13:48 20.4 °F 9.3 °F 1013.8 in Calm     49 % 0.0 in 744.0 W/m2 CLR
13:53 20.3 °F 8.9 °F 1013.8 in NE 9.3 mph 9.3 mph 48 % 0.0 in 738.0 W/m2 CLR
13:58 20.4 °F 9.0 °F 1013.8 in Calm     48 % 0.0 in 737.0 W/m2 CLR
14:03 20.6 °F 9.8 °F 1013.4 in WNW 8.0 mph 8.0 mph 50 % 0.0 in 731.0 W/m2 CLR
14:08 20.8 °F 9.4 °F 1013.4 in Calm     48 % 0.0 in 724.0 W/m2 CLR
14:13 20.9 °F 9.8 °F 1013.4 in Calm     49 % 0.0 in 721.0 W/m2 CLR
14:18 21.1 °F 9.7 °F 1013.4 in NNE 9.7 mph 9.7 mph 48 % 0.0 in 714.0 W/m2 CLR
14:23 21.1 °F 9.3 °F 1013.4 in Calm     47 % 0.0 in 710.0 W/m2 CLR
14:28 21.1 °F 9.1 °F 1013.1 in Calm     46 % 0.0 in 703.0 W/m2 CLR
14:33 21.3 °F 8.9 °F 1013.1 in WSW 1.9 mph 1.9 mph 45 % 0.0 in 698.0 W/m2 CLR
14:38 21.2 °F 8.8 °F 1013.1 in Calm     45 % 0.0 in 693.0 W/m2 CLR
14:43 21.3 °F 8.8 °F 1013.1 in Calm     45 % 0.0 in 686.0 W/m2 CLR
14:48 21.3 °F 9.2 °F 1013.1 in Calm     46 % 0.0 in 673.0 W/m2 CLR
14:53 21.4 °F 9.0 °F 1013.1 in NNE 7.4 mph 7.4 mph 45 % 0.0 in 668.0 W/m2 CLR
14:58 21.5 °F 9.1 °F 1012.8 in Calm     45 % 0.0 in 661.0 W/m2 CLR
15:03 21.5 °F 9.1 °F 1012.8 in West 1.9 mph 1.9 mph 45 % 0.0 in 652.0 W/m2 CLR
15:08 21.7 °F 9.6 °F 1012.8 in Calm     46 % 0.0 in 640.0 W/m2 CLR
15:13 21.9 °F 9.1 °F 1012.8 in ENE 5.6 mph 5.6 mph 44 % 0.0 in 631.0 W/m2 CLR
15:18 21.9 °F 9.4 °F 1012.8 in NNE 5.6 mph 5.6 mph 45 % 0.0 in 624.0 W/m2 CLR
15:23 21.8 °F 8.7 °F 1012.8 in Calm     43 % 0.0 in 615.0 W/m2 CLR
15:28 21.8 °F 9.1 °F 1012.8 in ENE 5.6 mph 5.6 mph 44 % 0.0 in 606.0 W/m2 CLR
15:33 21.7 °F 8.6 °F 1012.8 in Calm     43 % 0.0 in 598.0 W/m2 CLR
15:38 21.8 °F 8.7 °F 1012.4 in Calm     43 % 0.0 in 591.0 W/m2 CLR
15:43 22.1 °F 8.6 °F 1012.8 in ENE 3.7 mph 3.7 mph 42 % 0.0 in 587.0 W/m2 CLR
15:53 22.4 °F 9.2 °F 1012.4 in WNW 1.9 mph   43 % 0.0 in 468.0 W/m2 CLR
15:58 22.6 °F 9.1 °F 1012.4 in Calm     42 % 0.0 in 529.0 W/m2 CLR
16:03 22.9 °F 8.9 °F 1012.4 in NNW 5.6 mph 5.6 mph 41 % 0.0 in 543.0 W/m2 CLR
16:08 22.7 °F 9.8 °F 1012.4 in Calm     44 % 0.0 in 455.0 W/m2 CLR
16:13 22.6 °F 9.0 °F 1012.4 in Calm     42 % 0.0 in 425.0 W/m2 CLR
16:18 22.6 °F 8.6 °F 1012.4 in Calm     41 % 0.0 in 473.0 W/m2 CLR
16:23 22.6 °F 8.6 °F 1012.4 in NNE 7.4 mph 7.4 mph 41 % 0.0 in 446.0 W/m2 CLR
16:28 22.4 °F 8.5 °F 1012.4 in ENE 3.7 mph 3.7 mph 41 % 0.0 in 462.0 W/m2 CLR
16:33 22.4 °F 8.9 °F 1012.1 in NE 5.6 mph 5.6 mph 42 % 0.0 in 468.0 W/m2 CLR
16:38 22.6 °F 8.6 °F 1012.4 in NE 7.4 mph 7.4 mph 41 % 0.0 in 446.0 W/m2 CLR
16:43 22.7 °F 9.1 °F 1012.1 in North 7.4 mph 7.4 mph 42 % 0.0 in 403.0 W/m2 CLR
16:48 22.7 °F 8.8 °F 1012.1 in North 14.8 mph 14.8 mph 41 % 0.0 in 369.0 W/m2 CLR
16:53 22.4 °F 8.9 °F 1012.1 in NW 9.3 mph 9.3 mph 42 % 0.0 in 397.0 W/m2 CLR
16:58 22.3 °F 8.4 °F 1012.1 in NNW 11.1 mph 11.1 mph 41 % 0.0 in 380.0 W/m2 CLR
17:03 22.2 °F 8.7 °F 1012.1 in North 1.9 mph   42 % 0.0 in 362.0 W/m2 CLR
17:08 22.2 °F 8.7 °F 1012.1 in North 6.4 mph 6.4 mph 42 % 0.0 in 348.0 W/m2 CLR
17:13 22.2 °F 8.7 °F 1012.1 in North 13.0 mph 13.0 mph 42 % 0.0 in 287.0 W/m2 CLR
17:18 21.9 °F 8.4 °F 1012.1 in North 9.3 mph 9.3 mph 42 % 0.0 in 267.0 W/m2 CLR
17:23 21.9 °F 8.1 °F 1012.1 in North 6.4 mph 6.4 mph 41 % 0.0 in 253.0 W/m2 CLR
17:28 21.9 °F 8.4 °F 1012.1 in NNW 11.1 mph 11.1 mph 42 % 0.0 in 241.0 W/m2 CLR
17:33 21.7 °F 8.6 °F 1012.1 in Calm     43 % 0.0 in 220.0 W/m2 CLR
17:38 21.7 °F 8.9 °F 1012.1 in NNW 1.9 mph   44 % 0.0 in 185.0 W/m2 CLR
17:43 21.6 °F 8.5 °F 1012.4 in Calm     43 % 0.0 in 206.0 W/m2 CLR
17:48 21.7 °F 8.9 °F 1012.4 in Calm     44 % 0.0 in 197.0 W/m2 CLR
17:53 21.7 °F 8.6 °F 1012.1 in Calm     43 % 0.0 in 188.0 W/m2 CLR
17:54 21.7 °F 8.2 °F 1012.1 in Calm     42 % 0.0 in 186.0 W/m2 CLR
17:59 21.8 °F 8.7 °F 1012.4 in Calm     43 % 0.0 in 165.0 W/m2 CLR
18:04 21.9 °F 8.7 °F 1012.4 in Calm     43 % 0.0 in 146.0 W/m2 CLR
18:09 21.9 °F 8.7 °F 1012.4 in Calm     43 % 0.0 in 128.0 W/m2 CLR
18:14 22.0 °F 8.8 °F 1012.4 in Calm     43 % 0.0 in 111.0 W/m2 CLR
18:19 21.9 °F 8.8 °F 1012.4 in Calm     43 % 0.0 in 91.0 W/m2 CLR
18:24 21.8 °F 8.7 °F 1012.1 in Calm     43 % 0.0 in 77.0 W/m2 FEW
18:29 21.8 °F 8.7 °F 1012.4 in Calm     43 % 0.0 in 54.0 W/m2 SCT
18:34 21.8 °F 8.0 °F 1012.1 in Calm     41 % 0.0 in 49.0 W/m2 SCT
18:39 21.8 °F 8.3 °F 1012.4 in Calm     42 % 0.0 in 35.0 W/m2 BKN
18:44 21.6 °F 8.4 °F 1012.4 in Calm     43 % 0.0 in 25.0 W/m2 BKN
18:49 21.2 °F 9.7 °F 1012.4 in Calm     48 % 0.0 in 14.0 W/m2 BKN
18:54 20.7 °F 8.3 °F 1012.4 in Calm     45 % 0.0 in 12.0 W/m2 BKN
18:59 19.9 °F 8.3 °F 1012.4 in Calm     47 % 0.0 in 11.0 W/m2 BKN
19:04 19.5 °F 8.2 °F 1012.4 in Calm     48 % 0.0 in 7.0 W/m2 BKN
19:09 19.3 °F 8.3 °F 1012.4 in Calm     49 % 0.0 in 5.0 W/m2 OVC
19:14 19.0 °F 8.1 °F 1012.4 in Calm     49 % 0.0 in 0.0 W/m2 OVC
19:19 18.8 °F 8.2 °F 1012.4 in Calm     50 % 0.0 in 0.0 W/m2 OVC
19:25 18.6 °F 8.0 °F 1012.4 in Calm     50 % 0.0 in 0.0 W/m2 CLR
19:26 18.6 °F 8.2 °F 1012.4 in Calm     51 % 0.0 in 0.0 W/m2 CLR
19:31 18.1 °F 8.3 °F 1012.4 in Calm     53 % 0.0 in 0.0 W/m2 CLR
19:36 17.6 °F 8.7 °F 1012.4 in Calm     56 % 0.0 in 0.0 W/m2 CLR
19:41 17.1 °F 8.8 °F 1012.8 in Calm     58 % 0.0 in 0.0 W/m2 CLR
19:46 16.7 °F 8.6 °F 1012.8 in Calm     59 % 0.0 in 0.0 W/m2 CLR
19:51 16.3 °F 8.7 °F 1012.8 in Calm     61 % 0.0 in 0.0 W/m2 CLR
19:56 15.8 °F 8.6 °F 1012.8 in Calm     62 % 0.0 in 0.0 W/m2 CLR
20:01 15.5 °F 8.5 °F 1012.8 in Calm     63 % 0.0 in 0.0 W/m2 CLR
20:06 15.1 °F 8.6 °F 1013.1 in Calm     65 % 0.0 in 0.0 W/m2 CLR
20:11 14.8 °F 8.6 °F 1013.1 in Calm     66 % 0.0 in 0.0 W/m2 CLR
20:16 14.7 °F 8.4 °F 1013.1 in Calm     66 % 0.0 in 0.0 W/m2 CLR
20:21 14.4 °F 8.3 °F 1013.1 in Calm     67 % 0.0 in 0.0 W/m2 CLR
20:26 14.2 °F 8.3 °F 1013.1 in Calm     68 % 0.0 in 0.0 W/m2 CLR
20:31 13.9 °F 8.3 °F 1013.1 in Calm     69 % 0.0 in 0.0 W/m2 CLR
20:41 13.4 °F 8.3 °F 1013.4 in Calm     71 % 0.0 in 0.0 W/m2 CLR
20:46 13.3 °F 8.4 °F 1013.4 in Calm     72 % 0.0 in 0.0 W/m2 CLR
20:51 13.2 °F 8.3 °F 1013.4 in Calm     72 % 0.0 in 0.0 W/m2 CLR
20:56 13.1 °F 8.2 °F 1013.4 in Calm     72 % 0.0 in 0.0 W/m2 CLR
21:01 13.0 °F 8.3 °F 1013.4 in Calm     73 % 0.0 in 0.0 W/m2 CLR
21:06 12.9 °F 8.2 °F 1013.8 in Calm     73 % 0.0 in 0.0 W/m2 CLR
21:11 12.7 °F 8.0 °F 1013.8 in Calm     73 % 0.0 in 0.0 W/m2 CLR
21:16 12.5 °F 8.0 °F 1013.8 in Calm     74 % 0.0 in 0.0 W/m2 CLR
21:21 12.3 °F 7.9 °F 1013.8 in Calm     75 % 0.0 in 0.0 W/m2 CLR
21:26 12.1 °F 7.8 °F 1013.8 in Calm     75 % 0.0 in 0.0 W/m2 CLR
21:31 11.9 °F 7.8 °F 1013.8 in Calm     76 % 0.0 in 0.0 W/m2 CLR
21:36 11.8 °F 7.7 °F 1013.8 in Calm     76 % 0.0 in 0.0 W/m2 CLR
21:41 11.7 °F 7.6 °F 1014.1 in Calm     76 % 0.0 in 0.0 W/m2 CLR
21:46 11.7 °F 7.6 °F 1014.1 in Calm     76 % 0.0 in 0.0 W/m2 CLR
21:51 11.6 °F 7.7 °F 1014.1 in Calm     77 % 0.0 in 0.0 W/m2 CLR
21:56 11.5 °F 7.6 °F 1014.1 in Calm     77 % 0.0 in 0.0 W/m2 CLR
22:01 11.4 °F 7.5 °F 1014.1 in Calm     77 % 0.0 in 0.0 W/m2 CLR
22:06 11.2 °F 7.4 °F 1014.1 in Calm     78 % 0.0 in 0.0 W/m2 CLR
22:11 11.1 °F 7.4 °F 1014.1 in Calm     78 % 0.0 in 0.0 W/m2 CLR
22:16 10.9 °F 7.4 °F 1014.1 in Calm     79 % 0.0 in 0.0 W/m2 CLR
22:21 10.8 °F 7.3 °F 1014.1 in Calm     79 % 0.0 in 0.0 W/m2 CLR
22:26 10.7 °F 7.2 °F 1014.1 in Calm     79 % 0.0 in 0.0 W/m2 CLR
22:31 10.7 °F 7.3 °F 1014.1 in Calm     80 % 0.0 in 0.0 W/m2 CLR
22:36 10.6 °F 7.3 °F 1014.1 in Calm     80 % 0.0 in 0.0 W/m2 CLR
22:41 10.6 °F 7.2 °F 1014.1 in Calm     80 % 0.0 in 0.0 W/m2 CLR
22:46 10.5 °F 7.2 °F 1014.1 in Calm     80 % 0.0 in 0.0 W/m2 CLR
22:51 10.4 °F 7.2 °F 1014.4 in Calm     80 % 0.0 in 0.0 W/m2 CLR
22:56 10.3 °F 7.1 °F 1014.1 in Calm     80 % 0.0 in 0.0 W/m2 CLR
23:01 10.3 °F 7.0 °F 1014.1 in Calm     80 % 0.0 in 0.0 W/m2 CLR
23:11 10.1 °F 6.8 °F 1014.4 in Calm     80 % 0.0 in 0.0 W/m2 CLR
23:16 10.0 °F 6.9 °F 1014.4 in Calm     81 % 0.0 in 0.0 W/m2 CLR
23:21 9.9 °F 6.8 °F 1014.4 in Calm     81 % 0.0 in 0.0 W/m2 CLR
23:26 9.8 °F 6.7 °F 1014.4 in Calm     81 % 0.0 in 0.0 W/m2 CLR
23:31 9.8 °F 6.8 °F 1014.4 in Calm     82 % 0.0 in 0.0 W/m2 CLR
23:36 9.8 °F 6.9 °F 1014.4 in Calm     82 % 0.0 in 0.0 W/m2 CLR
23:41 9.8 °F 6.9 °F 1014.4 in Calm     82 % 0.0 in 0.0 W/m2 CLR
23:46 9.8 °F 6.9 °F 1014.1 in Calm     82 % 0.0 in 0.0 W/m2 CLR
23:51 9.9 °F 6.9 °F 1014.1 in Calm     82 % 0.0 in 0.0 W/m2 CLR
23:56 10.0 °F 6.9 °F 1014.1 in Calm     81 % 0.0 in 0.0 W/m2 CLR
Lo Temps de Massalio
Compliments of Weather Underground - 1.25 mb